Time;durP1;ratioP1;P1;durP2;ratioP2;P2;SDS_P1;SDS_P2;PMS_P1;PMS_P2;Temp;Humidity;BMP_temperature;BMP_pressure;BME280_temperature;BME280_humidity;BME280_pressure;Samples;Min_cycle;Max_cycle;Signal;HPM_P1;HPM_P2
2023/05/12 05:14:01;;;;;;;5.97;5.33;;;6.40;99.90;;;;;;5136393;27;20271;-79
2023/05/12 05:20:46;;;;;;;7.40;6.37;;;6.50;99.90;;;;;;5135820;27;20752;-79
2023/05/12 05:27:34;;;;;;;5.67;4.37;;;;;;;;;;5075637;28;20518;-79
2023/05/12 05:33:38;;;;;;;4.17;3.77;;;;;;;;;;5115812;27;20544;-79
2023/05/12 05:39:29;;;;;;;5.10;4.53;;;6.70;99.90;;;;;;5135815;27;20678;-78
2023/05/12 05:44:56;;;;;;;6.23;4.67;;;7.00;99.90;;;;;;5135711;27;20635;-79
2023/05/12 05:49:49;;;;;;;5.77;5.17;;;7.20;99.90;;;;;;5136688;27;20322;-79
2023/05/12 05:54:23;;;;;;;7.77;4.53;;;7.50;99.90;;;;;;5136704;27;20274;-79
2023/05/12 05:58:19;;;;;;;7.60;5.10;;;7.40;99.90;;;;;;5135897;27;20289;-79
2023/05/12 06:02:32;;;;;;;6.10;4.77;;;7.60;99.90;;;;;;5116676;27;20337;-80
2023/05/12 06:06:41;;;;;;;4.60;4.10;;;7.90;99.90;;;;;;5115866;27;20266;-79
2023/05/12 06:10:34;;;;;;;4.27;3.87;;;7.90;99.90;;;;;;5136334;27;20264;-79
2023/05/12 06:14:20;;;;;;;4.73;3.90;;;;;;;;;;5148744;27;20270;-79
2023/05/12 06:18:10;;;;;;;4.90;4.30;;;;;;;;;;5136273;27;20278;-79
2023/05/12 06:22:06;;;;;;;5.57;4.10;;;;;;;;;;5135853;27;20275;-79
2023/05/12 06:26:06;;;;;;;3.77;3.43;;;8.30;99.90;;;;;;5137424;27;20269;-79
2023/05/12 06:28:32;;;;;;;3.53;3.23;;;8.50;99.90;;;;;;5123267;28;20201;-79
2023/05/12 06:30:58;;;;;;;3.93;3.53;;;8.50;99.90;;;;;;5137410;28;20182;-79
2023/05/12 06:33:24;;;;;;;3.87;3.33;;;8.50;99.90;;;;;;5134954;28;20654;-79
2023/05/12 06:35:49;;;;;;;4.40;3.70;;;8.70;99.90;;;;;;5135914;27;20369;-79
2023/05/12 06:38:15;;;;;;;4.10;2.80;;;9.20;99.90;;;;;;5135475;27;20191;-79
2023/05/12 06:40:41;;;;;;;2.60;2.40;;;9.20;99.90;;;;;;5135121;27;20175;-78
2023/05/12 06:43:06;;;;;;;2.20;2.00;;;9.50;99.90;;;;;;5135749;27;20186;-78
2023/05/12 06:45:32;;;;;;;1.30;1.20;;;9.50;99.90;;;;;;5135755;28;20195;-79
2023/05/12 06:47:58;;;;;;;1.63;1.53;;;;;;;;;;5136526;27;20174;-79
2023/05/12 06:50:24;;;;;;;1.37;1.27;;;9.90;99.90;;;;;;5136350;28;20611;-79
2023/05/12 06:52:50;;;;;;;2.67;1.00;;;10.10;99.90;;;;;;5136855;27;20189;-79
2023/05/12 06:55:18;;;;;;;1.33;1.23;;;10.40;99.90;;;;;;5137405;27;20175;-79
2023/05/12 06:57:44;;;;;;;1.63;1.30;;;10.60;99.90;;;;;;5136229;28;20268;-79
2023/05/12 07:00:10;;;;;;;1.70;1.60;;;10.80;99.90;;;;;;5136688;27;20227;-79
2023/05/12 07:02:35;;;;;;;1.70;1.53;;;10.90;99.90;;;;;;5136664;27;20171;-79
2023/05/12 07:05:01;;;;;;;2.23;1.80;;;11.10;99.90;;;;;;5136347;27;20217;-79
2023/05/12 07:07:27;;;;;;;2.60;1.80;;;11.30;99.90;;;;;;5135433;27;20267;-79
2023/05/12 07:09:52;;;;;;;1.50;1.40;;;11.30;99.90;;;;;;5135869;27;20202;-79
2023/05/12 07:12:18;;;;;;;2.60;2.00;;;11.30;99.90;;;;;;5134928;27;20171;-79
2023/05/12 07:14:44;;;;;;;1.57;1.47;;;11.30;99.90;;;;;;5135718;27;20350;-79
2023/05/12 07:17:09;;;;;;;2.03;1.80;;;11.50;99.90;;;;;;5135594;27;20175;-79
2023/05/12 07:19:35;;;;;;;1.90;1.80;;;11.80;99.90;;;;;;5136287;27;20191;-79
2023/05/12 07:22:01;;;;;;;2.30;2.10;;;12.30;99.90;;;;;;5135782;27;20243;-80
2023/05/12 07:24:27;;;;;;;1.90;1.70;;;12.50;99.90;;;;;;5134817;28;20577;-79
2023/05/12 07:26:53;;;;;;;2.10;1.90;;;12.70;99.90;;;;;;5136166;27;20178;-79
2023/05/12 07:29:18;;;;;;;1.67;1.27;;;12.50;99.90;;;;;;5135223;27;20191;-79
2023/05/12 07:31:44;;;;;;;1.30;1.20;;;12.50;99.90;;;;;;5135027;28;20532;-79
2023/05/12 07:34:10;;;;;;;1.37;1.27;;;12.60;99.90;;;;;;5135882;27;20258;-79
2023/05/12 07:36:35;;;;;;;1.83;1.67;;;12.60;99.90;;;;;;5125182;28;20184;-79
2023/05/12 07:39:01;;;;;;;3.60;1.50;;;12.70;99.90;;;;;;5120568;28;20245;-79
2023/05/12 07:41:27;;;;;;;2.10;1.60;;;12.60;99.90;;;;;;5121601;28;20199;-79
2023/05/12 07:43:53;;;;;;;1.80;1.60;;;;;;;;;;5121935;28;20257;-79
2023/05/12 07:46:18;;;;;;;2.00;1.80;;;12.40;99.90;;;;;;5121277;28;20183;-79
2023/05/12 07:48:44;;;;;;;2.10;1.90;;;12.30;99.90;;;;;;5119942;28;20196;-79
2023/05/12 07:51:10;;;;;;;2.27;1.90;;;12.20;99.90;;;;;;5121157;28;20175;-79
2023/05/12 07:53:35;;;;;;;2.83;2.00;;;12.10;99.90;;;;;;5120057;28;20183;-79
2023/05/12 07:56:02;;;;;;;2.00;1.80;;;;;;;;;;5120949;28;20176;-79
2023/05/12 07:58:27;;;;;;;2.30;1.80;;;11.80;99.90;;;;;;5120707;28;20553;-79
2023/05/12 08:00:53;;;;;;;1.90;1.80;;;11.70;99.90;;;;;;5120199;28;20172;-79
2023/05/12 08:03:19;;;;;;;2.50;2.00;;;11.70;99.90;;;;;;5120374;28;20654;-79
2023/05/12 08:05:45;;;;;;;2.97;2.13;;;11.60;99.90;;;;;;5120254;28;20215;-79
2023/05/12 08:08:15;;;;;;;2.47;2.00;;;11.50;99.90;;;;;;5120494;28;20168;-79
2023/05/12 08:10:44;;;;;;;1.67;1.47;;;11.50;99.90;;;;;;5119945;28;20168;-79
2023/05/12 08:13:09;;;;;;;1.60;1.50;;;11.50;99.90;;;;;;5119632;27;20171;-79
2023/05/12 08:15:35;;;;;;;1.60;1.50;;;11.60;99.90;;;;;;5120142;27;20183;-79
2023/05/12 08:18:01;;;;;;;2.07;1.20;;;;;;;;;;5119450;28;20195;-79
2023/05/12 08:20:27;;;;;;;1.37;1.00;;;12.10;99.90;;;;;;5118118;28;20186;-79
2023/05/12 08:22:52;;;;;;;1.40;1.30;;;12.10;99.90;;;;;;5118367;28;20179;-80
2023/05/12 08:25:19;;;;;;;2.00;1.80;;;;;;;;;;5117821;28;20207;-80
2023/05/12 08:27:45;;;;;;;3.40;1.80;;;;;;;;;;5119678;28;20164;-79
2023/05/12 08:30:10;;;;;;;2.23;1.53;;;12.50;99.90;;;;;;5119172;28;20219;-79
2023/05/12 08:32:36;;;;;;;1.97;1.40;;;12.90;99.90;;;;;;5119552;28;20169;-79
2023/05/12 08:35:02;;;;;;;1.30;1.20;;;;;;;;;;5119335;28;20168;-79
2023/05/12 08:37:28;;;;;;;1.50;1.40;;;15.10;99.90;;;;;;5120350;28;20583;-79
2023/05/12 08:39:55;;;;;;;1.40;1.27;;;16.20;99.90;;;;;;5120146;28;20221;-79
2023/05/12 08:42:41;;;;;;;2.20;1.80;;;16.70;99.90;;;;;;5120751;28;20220;-79
2023/05/12 08:45:09;;;;;;;1.87;1.70;;;16.90;99.90;;;;;;5120340;28;20321;-79
2023/05/12 08:47:37;;;;;;;1.90;1.70;;;16.60;99.90;;;;;;5120707;28;20642;-79
2023/05/12 08:50:03;;;;;;;1.90;1.50;;;16.50;99.90;;;;;;5120551;28;20202;-79
2023/05/12 08:52:32;;;;;;;2.13;1.90;;;16.60;99.90;;;;;;5119798;28;20199;-79
2023/05/12 08:54:58;;;;;;;1.60;1.33;;;16.50;99.90;;;;;;5121021;28;20194;-79
2023/05/12 08:57:25;;;;;;;1.70;1.57;;;16.30;99.90;;;;;;5120554;28;20181;-79
2023/05/12 08:59:54;;;;;;;1.87;1.63;;;15.90;99.90;;;;;;5119703;28;20199;-79
2023/05/12 09:02:26;;;;;;;1.90;1.70;;;15.20;99.90;;;;;;5118598;28;20182;-79
2023/05/12 09:04:53;;;;;;;2.20;1.37;;;14.80;99.90;;;;;;5118459;28;20239;-79
2023/05/12 09:07:21;;;;;;;1.40;1.30;;;14.60;99.90;;;;;;5119052;28;20581;-79
2023/05/12 09:09:50;;;;;;;2.03;1.43;;;14.20;99.90;;;;;;5118471;28;20244;-79
2023/05/12 09:12:17;;;;;;;1.80;1.70;;;14.10;99.90;;;;;;5118661;28;20179;-79
2023/05/12 09:14:48;;;;;;;1.90;1.43;;;14.00;99.90;;;;;;5119446;28;20177;-79
2023/05/12 09:17:14;;;;;;;2.80;2.27;;;13.70;99.90;;;;;;5119096;28;20641;-79
2023/05/12 09:19:39;;;;;;;1.83;1.67;;;13.40;99.90;;;;;;5119355;28;20196;-79
2023/05/12 09:22:05;;;;;;;3.33;1.50;;;13.30;99.90;;;;;;5119446;28;20588;-80
2023/05/12 09:24:36;;;;;;;1.60;1.50;;;13.20;99.90;;;;;;5117619;28;20218;-80
2023/05/12 09:27:02;;;;;;;3.60;1.30;;;13.30;99.90;;;;;;5118925;28;20178;-79
2023/05/12 09:29:31;;;;;;;3.27;1.20;;;13.20;99.90;;;;;;5118235;28;20558;-79
2023/05/12 09:32:02;;;;;;;1.30;1.20;;;13.10;99.90;;;;;;5118404;28;20287;-79
2023/05/12 09:34:37;;;;;;;1.63;1.50;;;13.00;99.90;;;;;;5119068;28;20201;-79
2023/05/12 09:37:05;;;;;;;4.83;1.57;;;12.80;99.90;;;;;;5119612;28;20704;-79
2023/05/12 09:39:31;;;;;;;1.40;1.30;;;12.80;99.90;;;;;;5117766;28;20248;-79
2023/05/12 09:41:57;;;;;;;3.13;1.40;;;12.80;99.90;;;;;;5119431;28;20217;-79
2023/05/12 09:44:24;;;;;;;2.10;1.40;;;12.70;99.90;;;;;;5118708;28;20199;-79
2023/05/12 09:46:50;;;;;;;1.40;1.30;;;12.60;99.90;;;;;;5120134;28;20172;-79
2023/05/12 09:49:26;;;;;;;2.10;1.47;;;12.50;99.90;;;;;;5117905;28;20196;-80
2023/05/12 09:51:55;;;;;;;1.60;1.40;;;12.40;99.90;;;;;;5117373;28;20179;-79
2023/05/12 09:54:28;;;;;;;2.43;1.57;;;12.40;99.90;;;;;;5118440;28;20190;-79
2023/05/12 09:56:58;;;;;;;1.57;1.23;;;12.40;99.90;;;;;;5118235;28;20210;-79
2023/05/12 09:59:29;;;;;;;1.23;1.13;;;12.50;99.90;;;;;;5119031;27;20206;-80
2023/05/12 10:02:04;;;;;;;3.57;2.50;;;12.50;99.90;;;;;;5119037;28;20533;-79
2023/05/12 10:04:38;;;;;;;2.47;1.80;;;12.50;99.90;;;;;;5119211;28;20198;-79
2023/05/12 10:07:07;;;;;;;1.80;1.60;;;12.60;99.90;;;;;;5118062;28;20171;-80
2023/05/12 10:09:38;;;;;;;1.77;1.40;;;12.60;99.90;;;;;;5118919;28;20202;-80
2023/05/12 10:12:05;;;;;;;1.70;1.20;;;12.60;99.90;;;;;;5119131;28;20255;-80
2023/05/12 10:14:31;;;;;;;1.30;1.20;;;12.50;99.90;;;;;;5117114;28;20226;-80
2023/05/12 10:16:58;;;;;;;1.37;1.20;;;12.50;99.90;;;;;;5118974;28;20186;-80
2023/05/12 10:19:25;;;;;;;0.83;0.83;;;12.60;99.90;;;;;;5117273;28;20199;-80
2023/05/12 10:21:52;;;;;;;1.47;1.37;;;12.80;99.90;;;;;;5118107;28;20617;-79
2023/05/12 10:24:19;;;;;;;1.63;1.33;;;12.80;99.90;;;;;;5118206;28;20619;-79
2023/05/12 10:26:45;;;;;;;2.17;1.50;;;12.80;99.90;;;;;;5117903;28;20322;-80
2023/05/12 10:29:14;;;;;;;2.20;1.50;;;12.90;99.90;;;;;;5116828;28;20207;-80
2023/05/12 10:31:43;;;;;;;2.03;1.53;;;12.90;99.90;;;;;;5117936;28;20186;-80
2023/05/12 10:34:17;;;;;;;1.20;1.10;;;13.00;99.90;;;;;;5118339;28;20663;-79
2023/05/12 10:36:50;;;;;;;1.57;1.27;;;12.90;99.90;;;;;;5117404;28;20183;-79
2023/05/12 10:39:16;;;;;;;1.77;1.43;;;12.90;99.90;;;;;;5118778;28;20294;-80
2023/05/12 10:41:41;;;;;;;1.67;1.50;;;12.90;99.90;;;;;;5116764;28;20661;-80
2023/05/12 10:44:09;;;;;;;1.50;1.37;;;12.90;99.90;;;;;;5117305;28;20206;-80
2023/05/12 10:46:36;;;;;;;3.47;1.40;;;12.90;99.90;;;;;;5118390;28;20608;-80
2023/05/12 10:49:07;;;;;;;2.37;1.60;;;13.00;99.90;;;;;;5116976;28;20196;-79
2023/05/12 10:51:47;;;;;;;1.50;1.30;;;13.00;99.90;;;;;;5116894;28;20637;-80
2023/05/12 10:54:19;;;;;;;1.80;1.30;;;13.20;99.90;;;;;;5116357;28;20179;-79
2023/05/12 10:56:46;;;;;;;2.47;1.70;;;13.30;99.90;;;;;;5118022;28;20299;-80
2023/05/12 10:59:25;;;;;;;3.10;1.23;;;13.40;99.90;;;;;;5117546;28;20200;-80
2023/05/12 11:02:14;;;;;;;2.43;1.50;;;13.60;99.90;;;;;;5116840;28;20176;-79
2023/05/12 11:04:56;;;;;;;1.90;1.53;;;13.60;99.90;;;;;;5116418;28;20210;-80
2023/05/12 11:07:30;;;;;;;4.13;1.90;;;13.60;99.90;;;;;;5116241;28;20179;-80
2023/05/12 11:09:57;;;;;;;1.70;1.60;;;13.50;99.90;;;;;;5116147;28;20192;-80
2023/05/12 11:12:25;;;;;;;1.70;1.60;;;13.60;99.90;;;;;;5118540;28;20684;-79
2023/05/12 11:14:51;;;;;;;1.70;1.60;;;13.70;99.90;;;;;;5119723;28;20546;-80
2023/05/12 11:17:17;;;;;;;1.90;1.30;;;13.80;99.90;;;;;;5120959;28;20262;-80
2023/05/12 11:19:48;;;;;;;1.83;1.20;;;13.80;99.90;;;;;;5119724;28;20202;-79
2023/05/12 11:22:18;;;;;;;1.30;1.20;;;13.70;99.90;;;;;;5119368;28;20179;-80
2023/05/12 11:24:43;;;;;;;1.60;1.50;;;13.70;99.90;;;;;;5120076;28;20207;-80
2023/05/12 11:27:17;;;;;;;1.50;1.40;;;13.70;99.90;;;;;;5119325;28;20183;-79
2023/05/12 11:29:45;;;;;;;1.77;1.60;;;13.70;99.90;;;;;;5120128;28;20196;-78
2023/05/12 11:32:14;;;;;;;3.80;1.63;;;13.70;99.90;;;;;;5119717;28;20517;-79
2023/05/12 11:34:40;;;;;;;4.07;2.60;;;13.80;99.90;;;;;;5120104;28;20180;-80
2023/05/12 11:37:06;;;;;;;1.50;1.40;;;13.90;99.90;;;;;;5119327;28;20278;-80
2023/05/12 11:39:32;;;;;;;1.77;1.50;;;14.00;99.90;;;;;;5119126;28;20280;-80
2023/05/12 11:42:05;;;;;;;2.07;1.87;;;14.10;99.90;;;;;;5120557;28;20253;-80
2023/05/12 11:44:31;;;;;;;3.60;1.70;;;14.00;99.90;;;;;;5119556;28;20746;-80
2023/05/12 11:47:05;;;;;;;1.87;1.77;;;14.00;99.90;;;;;;5120990;28;20164;-79
2023/05/12 11:49:31;;;;;;;3.67;1.97;;;14.00;99.90;;;;;;5120187;28;20278;-80
2023/05/12 11:51:59;;;;;;;2.77;2.40;;;14.00;99.90;;;;;;5120661;28;20201;-79
2023/05/12 11:54:28;;;;;;;2.77;2.03;;;14.00;99.90;;;;;;5120433;28;20215;-79
2023/05/12 11:56:55;;;;;;;1.50;1.40;;;14.00;99.90;;;;;;5122136;28;20173;-80
2023/05/12 11:59:39;;;;;;;1.97;1.77;;;14.10;99.90;;;;;;5122264;28;20192;-80
2023/05/12 12:02:05;;;;;;;1.93;1.73;;;14.60;99.90;;;;;;5121012;28;20182;-80
2023/05/12 12:04:39;;;;;;;1.70;1.60;;;14.80;99.90;;;;;;5119268;28;20567;-80
2023/05/12 12:07:06;;;;;;;2.43;2.13;;;15.10;99.90;;;;;;5121937;28;20174;-79
2023/05/12 12:09:36;;;;;;;2.23;2.00;;;15.40;99.90;;;;;;5122239;28;20193;-80
2023/05/12 12:12:04;;;;;;;1.77;1.67;;;15.70;99.90;;;;;;5120373;28;20655;-80
2023/05/12 12:14:31;;;;;;;3.00;1.57;;;16.10;99.90;;;;;;5121091;28;20647;-80
2023/05/12 12:16:58;;;;;;;2.30;2.10;;;16.50;99.90;;;;;;5121266;28;20172;-80
2023/05/12 12:19:24;;;;;;;1.80;1.70;;;16.40;99.90;;;;;;5120000;28;20227;-80
2023/05/12 12:21:50;;;;;;;2.80;1.97;;;16.00;99.90;;;;;;5120382;28;20195;-80
2023/05/12 12:24:16;;;;;;;2.00;1.83;;;15.90;99.90;;;;;;5121331;28;20688;-81
2023/05/12 12:26:42;;;;;;;1.80;1.70;;;15.60;99.90;;;;;;5119824;28;20179;-80
2023/05/12 12:29:08;;;;;;;1.77;1.50;;;15.80;99.90;;;;;;5120975;28;20192;-81
2023/05/12 12:31:35;;;;;;;1.60;1.50;;;16.60;99.90;;;;;;5119735;28;20180;-80
2023/05/12 12:34:02;;;;;;;1.33;1.23;;;17.60;99.90;;;;;;5120941;28;20174;-80
2023/05/12 12:36:28;;;;;;;1.67;1.57;;;19.30;99.90;;;;;;5118689;28;20177;-80
2023/05/12 12:38:53;;;;;;;2.40;1.33;;;20.70;99.90;;;;;;5119141;28;20739;-81
2023/05/12 12:41:19;;;;;;;2.10;1.50;;;21.40;99.90;;;;;;5120072;28;20179;-80
2023/05/12 12:43:45;;;;;;;1.30;1.20;;;20.60;99.90;;;;;;5119149;28;20182;-81
2023/05/12 12:46:11;;;;;;;1.43;1.33;;;19.80;99.90;;;;;;5118820;28;20210;-81
2023/05/12 12:48:36;;;;;;;1.30;1.20;;;19.20;99.90;;;;;;5119179;28;20228;-80
2023/05/12 12:51:02;;;;;;;3.10;1.20;;;19.40;99.90;;;;;;5120234;28;20172;-81
2023/05/12 12:53:29;;;;;;;1.23;0.90;;;;;;;;;;5118382;28;20175;-80
2023/05/12 12:55:55;;;;;;;1.30;1.10;;;19.50;99.90;;;;;;5118843;28;20214;-81
2023/05/12 12:58:21;;;;;;;1.47;0.90;;;19.30;99.90;;;;;;5118097;28;20195;-81
2023/05/12 13:00:46;;;;;;;1.20;1.10;;;19.40;99.90;;;;;;5117894;28;20180;-81
2023/05/12 13:03:12;;;;;;;1.37;1.27;;;20.00;99.90;;;;;;5117128;28;20184;-81
2023/05/12 13:05:38;;;;;;;1.33;1.23;;;19.60;99.90;;;;;;5117903;28;20267;-81
2023/05/12 13:08:03;;;;;;;1.63;1.10;;;19.40;99.90;;;;;;5119894;28;20675;-81
2023/05/12 13:10:29;;;;;;;1.80;1.07;;;19.50;99.90;;;;;;5117773;28;20196;-81
2023/05/12 13:12:55;;;;;;;1.73;1.20;;;20.50;99.90;;;;;;5118070;28;20184;-80
2023/05/12 13:15:21;;;;;;;1.10;1.00;;;20.60;99.90;;;;;;5118596;28;20240;-81
2023/05/12 13:17:46;;;;;;;2.03;1.00;;;21.00;99.90;;;;;;5119822;28;20183;-80
2023/05/12 13:20:13;;;;;;;0.80;0.80;;;21.70;99.90;;;;;;5120543;28;20216;-80
2023/05/12 13:22:40;;;;;;;1.17;0.90;;;21.60;99.30;;;;;;5119761;27;20174;-81
2023/05/12 13:25:06;;;;;;;2.77;1.00;;;22.20;99.40;;;;;;5117835;28;20266;-81
2023/05/12 13:27:36;;;;;;;10.03;2.13;;;21.30;96.80;;;;;;5119412;28;20174;-80
2023/05/12 13:30:03;;;;;;;0.77;0.77;;;20.10;98.90;;;;;;5119340;28;20271;-80
2023/05/12 13:32:29;;;;;;;1.00;0.90;;;19.10;99.90;;;;;;5118426;28;20188;-81
2023/05/12 13:34:55;;;;;;;0.93;0.80;;;19.70;99.90;;;;;;5118788;28;20187;-81
2023/05/12 13:37:21;;;;;;;1.10;0.90;;;20.10;99.90;;;;;;5118076;28;20182;-80
2023/05/12 13:39:47;;;;;;;1.20;0.97;;;20.00;99.90;;;;;;5118466;28;20267;-81
2023/05/12 13:42:12;;;;;;;1.43;0.70;;;18.90;99.90;;;;;;5119026;28;20187;-81
2023/05/12 13:44:38;;;;;;;1.20;1.10;;;18.50;99.90;;;;;;5118919;28;20323;-81
2023/05/12 13:47:06;;;;;;;1.53;1.33;;;19.10;99.90;;;;;;5117811;28;20188;-82
2023/05/12 13:49:33;;;;;;;1.07;1.03;;;19.80;99.90;;;;;;5117018;28;20295;-81
2023/05/12 13:51:58;;;;;;;1.17;1.10;;;19.20;99.90;;;;;;5118150;28;20274;-81
2023/05/12 13:54:24;;;;;;;1.30;1.00;;;18.10;99.90;;;;;;5117349;28;20223;-81
2023/05/12 13:56:50;;;;;;;1.30;1.13;;;17.40;99.90;;;;;;5116779;28;20175;-81
2023/05/12 13:59:15;;;;;;;1.30;1.00;;;17.20;99.90;;;;;;5116704;28;20256;-80
2023/05/12 14:01:42;;;;;;;1.30;1.20;;;17.40;99.90;;;;;;5116603;28;20660;-80
2023/05/12 14:04:09;;;;;;;1.30;1.20;;;17.30;99.90;;;;;;5117250;28;20244;-80
2023/05/12 14:06:34;;;;;;;1.30;1.20;;;17.50;99.90;;;;;;5117323;28;20259;-81
2023/05/12 14:09:00;;;;;;;1.40;1.30;;;17.60;99.90;;;;;;5118483;28;20719;-80
2023/05/12 14:11:26;;;;;;;1.37;1.27;;;17.10;99.90;;;;;;5116769;28;20688;-80
2023/05/12 14:13:51;;;;;;;3.23;1.30;;;16.70;99.90;;;;;;5118889;28;20175;-80
2023/05/12 14:16:17;;;;;;;1.90;1.40;;;16.20;99.90;;;;;;5119017;28;20199;-81
2023/05/12 14:18:43;;;;;;;2.53;1.47;;;15.90;99.90;;;;;;5118790;28;20222;-80
2023/05/12 14:21:08;;;;;;;1.97;1.57;;;15.60;99.90;;;;;;5117923;28;20658;-80
2023/05/12 14:23:35;;;;;;;2.43;1.30;;;15.50;99.90;;;;;;5117201;28;20178;-80
2023/05/12 14:26:02;;;;;;;1.57;1.47;;;15.60;99.90;;;;;;5117981;28;20195;-80
2023/05/12 14:28:28;;;;;;;1.60;1.40;;;16.00;99.90;;;;;;5118066;28;20320;-80
2023/05/12 14:30:53;;;;;;;1.70;1.50;;;16.00;99.90;;;;;;5119072;28;20191;-80
2023/05/12 14:33:19;;;;;;;1.53;1.40;;;15.70;99.90;;;;;;5117916;28;20177;-81
2023/05/12 14:35:45;;;;;;;1.90;1.40;;;15.40;99.90;;;;;;5116766;28;20209;-80
2023/05/12 14:38:10;;;;;;;2.80;1.40;;;15.30;99.90;;;;;;5116445;28;20277;-80
2023/05/12 14:40:36;;;;;;;4.10;1.50;;;15.10;99.90;;;;;;5117644;28;20621;-81
2023/05/12 14:43:02;;;;;;;1.60;1.50;;;15.00;99.90;;;;;;5115888;28;20722;-81
2023/05/12 14:45:30;;;;;;;1.87;1.53;;;15.00;99.90;;;;;;5117339;28;20191;-81
2023/05/12 14:47:55;;;;;;;2.37;1.20;;;15.40;99.90;;;;;;5122113;28;20218;-80
2023/05/12 14:50:22;;;;;;;3.27;1.37;;;15.60;99.90;;;;;;5122262;28;20194;-80
2023/05/12 14:52:47;;;;;;;2.37;1.40;;;15.60;99.90;;;;;;5123021;28;20177;-80
2023/05/12 14:55:15;;;;;;;1.43;1.33;;;15.50;99.90;;;;;;5123801;28;20174;-82
2023/05/12 14:57:42;;;;;;;1.77;1.30;;;15.20;99.90;;;;;;5123433;28;20174;-80
2023/05/12 15:00:10;;;;;;;1.97;1.77;;;15.00;99.90;;;;;;5121779;28;20570;-81
2023/05/12 15:02:36;;;;;;;5.00;1.43;;;14.80;99.90;;;;;;5125620;28;20185;-80
2023/05/12 15:05:02;;;;;;;1.10;1.00;;;14.80;99.90;;;;;;5123679;28;20547;-80
2023/05/12 15:07:28;;;;;;;2.33;1.00;;;14.70;99.90;;;;;;5121617;28;20205;-80
2023/05/12 15:09:54;;;;;;;1.47;0.93;;;14.60;99.90;;;;;;5122823;28;20196;-80
2023/05/12 15:12:20;;;;;;;10.03;1.13;;;14.50;99.90;;;;;;5120056;28;20181;-80
2023/05/12 15:14:46;;;;;;;1.30;0.87;;;14.50;99.90;;;;;;5120894;28;20527;-81
2023/05/12 15:17:12;;;;;;;1.00;0.90;;;14.80;99.90;;;;;;5120338;28;20182;-80
2023/05/12 15:19:38;;;;;;;2.13;0.63;;;15.00;99.90;;;;;;5121099;28;20198;-82
2023/05/12 15:22:04;;;;;;;1.53;0.77;;;15.10;99.90;;;;;;5121632;28;20178;-82
2023/05/12 15:24:29;;;;;;;2.50;0.80;;;15.70;99.90;;;;;;5119866;28;20205;-81
2023/05/12 15:26:55;;;;;;;1.63;0.80;;;15.70;99.90;;;;;;5119360;28;20189;-80
2023/05/12 15:29:21;;;;;;;0.87;0.70;;;15.30;99.90;;;;;;5120687;28;20199;-81
2023/05/12 15:31:49;;;;;;;1.10;0.80;;;14.90;99.90;;;;;;5120901;28;20229;-81
2023/05/12 15:34:15;;;;;;;1.73;0.80;;;14.70;99.90;;;;;;5119336;28;20177;-81
2023/05/12 15:36:44;;;;;;;0.90;0.70;;;14.50;99.90;;;;;;5119497;28;20179;-81
2023/05/12 15:39:14;;;;;;;1.07;0.77;;;14.40;99.90;;;;;;5120514;28;20197;-81
2023/05/12 15:41:39;;;;;;;1.00;0.80;;;14.30;99.90;;;;;;5120337;28;20245;-81
2023/05/12 15:44:05;;;;;;;2.30;1.10;;;14.40;99.90;;;;;;5120907;28;20212;-81
2023/05/12 15:46:31;;;;;;;0.73;0.73;;;14.30;99.90;;;;;;5121591;28;20176;-81
2023/05/12 15:48:57;;;;;;;1.93;1.07;;;14.30;99.90;;;;;;5121431;28;20222;-80
2023/05/12 15:51:22;;;;;;;1.17;1.00;;;14.50;99.90;;;;;;5120554;28;20179;-80
2023/05/12 15:53:49;;;;;;;1.47;1.20;;;14.70;99.90;;;;;;5120492;28;20169;-81
2023/05/12 15:56:15;;;;;;;1.93;1.13;;;14.70;99.90;;;;;;5119907;28;20217;-81
2023/05/12 15:58:41;;;;;;;2.20;1.50;;;14.40;99.90;;;;;;5119505;28;20222;-81
2023/05/12 16:01:06;;;;;;;2.37;1.30;;;14.10;99.90;;;;;;5119212;28;20179;-81
2023/05/12 16:03:32;;;;;;;1.93;1.50;;;13.80;99.90;;;;;;5120131;28;20177;-81
2023/05/12 16:05:58;;;;;;;2.13;1.80;;;13.60;99.90;;;;;;5119562;28;20218;-80
2023/05/12 16:08:23;;;;;;;2.07;1.70;;;13.50;99.90;;;;;;5121079;28;20224;-81
2023/05/12 16:10:50;;;;;;;1.47;1.37;;;13.60;99.90;;;;;;5118581;28;20554;-80
2023/05/12 16:13:15;;;;;;;2.97;1.90;;;13.50;99.90;;;;;;5119283;28;20211;-80
2023/05/12 16:15:41;;;;;;;2.67;2.20;;;13.40;99.90;;;;;;5118172;28;20185;-80
2023/05/12 16:18:07;;;;;;;4.23;2.80;;;13.30;99.90;;;;;;5118807;28;20185;-80
2023/05/12 16:20:33;;;;;;;2.77;2.20;;;13.30;99.90;;;;;;5119234;28;20181;-80
2023/05/12 16:22:58;;;;;;;3.90;2.40;;;13.30;99.90;;;;;;5118836;28;20183;-80
2023/05/12 16:25:25;;;;;;;2.77;2.57;;;13.40;99.90;;;;;;5118481;28;20701;-80
2023/05/12 16:27:51;;;;;;;4.10;2.80;;;13.30;99.90;;;;;;5122050;28;20166;-80
2023/05/12 16:30:17;;;;;;;2.93;2.57;;;13.20;99.90;;;;;;5118896;28;20227;-80
2023/05/12 16:32:43;;;;;;;4.07;2.50;;;13.20;99.90;;;;;;5117728;28;20172;-80
2023/05/12 16:35:09;;;;;;;3.00;2.50;;;13.20;99.90;;;;;;5119252;28;20614;-80
2023/05/12 16:37:34;;;;;;;4.13;2.50;;;13.00;99.90;;;;;;5118533;28;20235;-80
2023/05/12 16:40:00;;;;;;;2.93;2.63;;;12.90;99.90;;;;;;5118456;28;20192;-81
2023/05/12 16:42:26;;;;;;;3.70;2.50;;;12.80;99.90;;;;;;5120407;28;20227;-80
2023/05/12 16:44:54;;;;;;;3.77;2.23;;;12.80;99.90;;;;;;5121579;28;20199;-81
2023/05/12 16:47:20;;;;;;;3.63;2.50;;;12.80;99.90;;;;;;5119834;28;20206;-80
2023/05/12 16:49:46;;;;;;;3.93;2.77;;;12.80;99.90;;;;;;5119325;28;20191;-80
2023/05/12 16:52:13;;;;;;;4.83;2.97;;;12.80;99.90;;;;;;5120838;28;20231;-80
2023/05/12 16:54:39;;;;;;;4.30;3.30;;;12.90;99.90;;;;;;5119611;28;20183;-80
2023/05/12 16:57:05;;;;;;;6.10;4.07;;;12.90;99.90;;;;;;5119685;28;20171;-80
2023/05/12 16:59:31;;;;;;;5.07;3.77;;;12.90;99.90;;;;;;5118462;28;20591;-80
2023/05/12 17:01:58;;;;;;;4.00;3.60;;;12.80;99.90;;;;;;5118311;28;20225;-80
2023/05/12 17:04:24;;;;;;;5.67;3.90;;;12.70;99.90;;;;;;5117745;28;20244;-80
2023/05/12 17:06:50;;;;;;;5.00;3.77;;;12.60;99.90;;;;;;5119181;28;20250;-80
2023/05/12 17:09:16;;;;;;;4.47;3.73;;;12.50;99.90;;;;;;5116269;28;20206;-80
2023/05/12 17:11:42;;;;;;;4.37;3.67;;;12.40;99.90;;;;;;5117071;28;20601;-80
